Terminal Aerodrome Forecast
Issued by NWS Sioux Falls, SD

Home | Current Version | Previous Version | Text Only | Print | Product List | Glossary On
Versions: 1 2 3 4 5 6 7 8 9 10 11 12 13 14
162
FTUS43 KFSD 241441 AAA
TAFFSD
TAF AMD
KFSD 241441Z 2415/2512 01020G31KT P6SM SCT015 OVC070
     FM241700 36019G29KT P6SM OVC025
     FM241900 36019G27KT P6SM OVC050
     FM250000 34015G23KT P6SM SCT250
     FM250600 33011KT P6SM FEW250
     FM251100 32008KT P6SM FEW200=

USA.gov is the U.S. government's official web portal to all federal, state and local government web resources and services.